Time;durP1;ratioP1;P1;durP2;ratioP2;P2;SDS_P1;SDS_P2;PMS_P1;PMS_P2;Temp;Humidity;BMP_temperature;BMP_pressure;BME280_temperature;BME280_humidity;BME280_pressure;Samples;Min_cycle;Max_cycle;Signal;HPM_P1;HPM_P2
2022/08/31 00:04:01;;;;;;;0.08;0.08;;;19.40;99.90;;;;;;5055858;28;20036;-73
2022/08/31 00:06:34;;;;;;;0.10;0.10;;;19.30;99.90;;;;;;5055442;28;20032;-73
2022/08/31 00:09:02;;;;;;;0.30;0.30;;;19.30;99.90;;;;;;5055626;28;20021;-73
2022/08/31 00:11:29;;;;;;;0.00;0.00;;;19.40;99.90;;;;;;5055360;28;20025;-73
2022/08/31 00:14:01;;;;;;;0.10;0.10;;;19.40;99.90;;;;;;5055415;28;20032;-73
2022/08/31 00:16:31;;;;;;;0.10;0.10;;;19.20;99.90;;;;;;5055443;28;20392;-73
2022/08/31 00:18:56;;;;;;;0.40;0.40;;;19.30;99.90;;;;;;5055473;28;20029;-73
2022/08/31 00:21:27;;;;;;;0.65;0.65;;;19.20;99.90;;;;;;5054931;28;20036;-73
2022/08/31 00:23:54;;;;;;;0.03;0.03;;;19.10;99.90;;;;;;5055368;28;20176;-73
2022/08/31 00:26:21;;;;;;;0.30;0.30;;;19.00;99.90;;;;;;5055111;28;20099;-73
2022/08/31 00:28:47;;;;;;;0.75;0.75;;;19.00;99.90;;;;;;5037550;28;20024;-73
2022/08/31 00:31:14;;;;;;;0.20;0.20;;;18.80;99.90;;;;;;5055090;28;20104;-73
2022/08/31 00:33:40;;;;;;;0.10;0.10;;;18.60;99.90;;;;;;5037221;28;20056;-73
2022/08/31 00:36:09;;;;;;;1.70;1.05;;;18.50;99.90;;;;;;5036925;28;20483;-72
2022/08/31 00:38:35;;;;;;;0.10;0.10;;;18.40;99.90;;;;;;5054989;28;20051;-73
2022/08/31 00:41:01;;;;;;;0.20;0.20;;;18.40;99.90;;;;;;5055008;28;20075;-73
2022/08/31 00:43:39;;;;;;;0.47;0.47;;;18.50;99.90;;;;;;5054706;28;20488;-73
2022/08/31 00:46:07;;;;;;;0.10;0.10;;;18.40;99.90;;;;;;5036847;28;20021;-73
2022/08/31 00:48:34;;;;;;;0.30;0.30;;;18.50;99.90;;;;;;5036791;28;20021;-73
2022/08/31 00:51:00;;;;;;;3.20;0.75;;;18.60;99.90;;;;;;5055051;28;20392;-73
2022/08/31 00:53:26;;;;;;;0.75;0.75;;;18.70;99.90;;;;;;5054513;28;20021;-73
2022/08/31 00:55:52;;;;;;;1.65;1.05;;;18.80;99.90;;;;;;5036656;28;20462;-73
2022/08/31 00:58:18;;;;;;;1.55;1.17;;;18.70;99.90;;;;;;5036815;28;20104;-73
2022/08/31 01:00:44;;;;;;;1.40;0.93;;;18.70;99.90;;;;;;5036563;28;20503;-73
2022/08/31 01:03:10;;;;;;;0.20;0.20;;;18.50;99.90;;;;;;5036712;28;20021;-73
2022/08/31 01:05:37;;;;;;;0.35;0.35;;;18.60;99.90;;;;;;5035032;28;20060;-73
2022/08/31 01:08:04;;;;;;;0.32;0.32;;;18.80;99.90;;;;;;5054398;28;20048;-73
2022/08/31 01:10:33;;;;;;;0.10;0.10;;;18.80;99.90;;;;;;5054343;28;20025;-73
2022/08/31 01:13:00;;;;;;;0.10;0.10;;;18.90;99.90;;;;;;5054221;28;20028;-73
2022/08/31 01:15:28;;;;;;;0.32;0.32;;;18.90;99.90;;;;;;5054154;28;20029;-73
2022/08/31 01:17:57;;;;;;;1.25;0.45;;;18.80;99.90;;;;;;5054318;28;20104;-72
2022/08/31 01:20:53;;;;;;;0.38;0.38;;;18.70;99.90;;;;;;5054041;28;20021;-73
2022/08/31 01:23:25;;;;;;;0.30;0.30;;;18.70;99.90;;;;;;5053953;28;20373;-73
2022/08/31 01:25:54;;;;;;;0.10;0.10;;;18.70;99.90;;;;;;5054407;28;20425;-73
2022/08/31 01:28:21;;;;;;;0.10;0.10;;;18.70;99.90;;;;;;5054108;28;20024;-73
2022/08/31 01:31:08;;;;;;;0.10;0.10;;;19.00;99.90;;;;;;5054149;28;20036;-73
2022/08/31 01:33:37;;;;;;;0.35;0.35;;;19.20;99.90;;;;;;5053825;28;20512;-73
2022/08/31 01:36:04;;;;;;;0.10;0.10;;;19.20;99.90;;;;;;5053805;28;20028;-73
2022/08/31 01:38:31;;;;;;;0.00;0.00;;;18.90;99.90;;;;;;5053799;28;20017;-73
2022/08/31 01:41:00;;;;;;;0.10;0.10;;;18.90;99.90;;;;;;5035748;28;20035;-73
2022/08/31 01:43:28;;;;;;;0.20;0.20;;;18.90;99.90;;;;;;5053672;28;20021;-73
2022/08/31 01:45:54;;;;;;;0.10;0.10;;;18.90;99.90;;;;;;5053554;28;20075;-73
2022/08/31 01:48:21;;;;;;;0.10;0.10;;;19.00;99.90;;;;;;5053696;28;20354;-73
2022/08/31 01:50:47;;;;;;;0.10;0.10;;;19.10;99.90;;;;;;5053599;28;20493;-73
2022/08/31 01:53:13;;;;;;;0.10;0.10;;;19.30;99.90;;;;;;5053476;28;20029;-73
2022/08/31 01:55:40;;;;;;;1.35;1.25;;;19.30;99.90;;;;;;5053377;28;20087;-73
2022/08/31 01:58:06;;;;;;;0.20;0.20;;;19.20;99.90;;;;;;5053472;28;20035;-73
2022/08/31 02:00:32;;;;;;;0.10;0.10;;;19.00;99.90;;;;;;5053213;28;20100;-73
2022/08/31 02:03:00;;;;;;;0.10;0.10;;;18.90;99.90;;;;;;5053544;28;20472;-73
2022/08/31 02:05:29;;;;;;;0.05;0.05;;;18.80;99.90;;;;;;5053336;28;20067;-73
2022/08/31 02:07:56;;;;;;;0.10;0.10;;;18.60;99.90;;;;;;5035359;28;20029;-73
2022/08/31 02:10:23;;;;;;;0.68;0.68;;;18.60;99.90;;;;;;5035461;28;20025;-73
2022/08/31 02:12:48;;;;;;;0.10;0.10;;;18.70;99.90;;;;;;5053002;28;20043;-73
2022/08/31 02:15:15;;;;;;;0.10;0.10;;;18.80;99.90;;;;;;5052915;28;20013;-73
2022/08/31 02:17:41;;;;;;;0.00;0.00;;;18.80;99.90;;;;;;5052644;28;20017;-73
2022/08/31 02:20:09;;;;;;;0.10;0.10;;;18.80;99.90;;;;;;5035256;28;20028;-73
2022/08/31 02:22:35;;;;;;;0.32;0.32;;;18.80;99.90;;;;;;5052647;28;20530;-73
2022/08/31 02:25:01;;;;;;;0.30;0.30;;;18.60;99.90;;;;;;5052901;28;20550;-73
2022/08/31 02:27:27;;;;;;;0.10;0.10;;;18.70;99.90;;;;;;5034951;28;20025;-72
2022/08/31 02:29:52;;;;;;;0.10;0.10;;;18.80;99.90;;;;;;5052852;28;20639;-73
2022/08/31 02:32:20;;;;;;;1.23;1.23;;;18.60;99.90;;;;;;5052725;28;20108;-73
2022/08/31 02:34:47;;;;;;;0.20;0.20;;;18.50;99.90;;;;;;5052699;28;20021;-73
2022/08/31 02:37:12;;;;;;;0.10;0.10;;;18.60;99.90;;;;;;5052523;28;20028;-73
2022/08/31 02:39:39;;;;;;;0.20;0.20;;;18.90;99.90;;;;;;5052556;28;20025;-73
2022/08/31 02:42:05;;;;;;;0.20;0.20;;;18.90;99.90;;;;;;5034581;28;20031;-73
2022/08/31 02:44:30;;;;;;;0.10;0.10;;;18.90;99.90;;;;;;5052706;28;20024;-73
2022/08/31 02:46:56;;;;;;;0.10;0.10;;;19.10;99.90;;;;;;5052355;28;20440;-73
2022/08/31 02:49:22;;;;;;;0.28;0.28;;;19.10;99.90;;;;;;5052467;28;20373;-73
2022/08/31 02:51:48;;;;;;;0.10;0.10;;;19.20;99.90;;;;;;5052410;28;20056;-73
2022/08/31 02:54:14;;;;;;;0.40;0.40;;;19.20;99.90;;;;;;5052376;28;20029;-73
2022/08/31 02:56:40;;;;;;;0.20;0.20;;;19.20;99.90;;;;;;5034405;28;20115;-73
2022/08/31 02:59:07;;;;;;;0.13;0.13;;;19.20;99.90;;;;;;5052355;28;20032;-73
2022/08/31 03:01:34;;;;;;;0.10;0.10;;;19.30;99.90;;;;;;5052049;28;20377;-73
2022/08/31 03:04:00;;;;;;;0.10;0.10;;;19.00;99.90;;;;;;5034497;28;20029;-73
2022/08/31 03:06:28;;;;;;;0.20;0.20;;;18.90;99.90;;;;;;5034429;28;20075;-72
2022/08/31 03:08:54;;;;;;;0.40;0.40;;;18.90;99.90;;;;;;5034343;28;20468;-73
2022/08/31 03:11:20;;;;;;;0.10;0.10;;;18.80;99.90;;;;;;5052109;28;20027;-73
2022/08/31 03:13:46;;;;;;;0.10;0.10;;;18.90;99.90;;;;;;5052244;28;20112;-73
2022/08/31 03:16:14;;;;;;;1.05;1.00;;;18.90;99.90;;;;;;5034087;28;20079;-73
2022/08/31 03:18:40;;;;;;;0.47;0.47;;;18.80;99.90;;;;;;5034292;28;20021;-73
2022/08/31 03:21:06;;;;;;;0.10;0.10;;;18.70;99.90;;;;;;5051841;28;20029;-73
2022/08/31 03:23:32;;;;;;;0.10;0.10;;;18.50;99.90;;;;;;5052026;28;20101;-73
2022/08/31 03:25:58;;;;;;;0.52;0.28;;;18.70;99.90;;;;;;5034118;28;20048;-73
2022/08/31 03:28:24;;;;;;;0.10;0.10;;;18.80;99.90;;;;;;5051139;28;20025;-73
2022/08/31 03:30:51;;;;;;;0.10;0.10;;;18.80;99.90;;;;;;5034114;28;20504;-73
2022/08/31 03:33:17;;;;;;;0.10;0.10;;;18.70;99.90;;;;;;5051778;28;20044;-73
2022/08/31 03:35:43;;;;;;;0.45;0.45;;;18.70;99.90;;;;;;5051919;28;20216;-73
2022/08/31 03:38:11;;;;;;;0.30;0.30;;;18.70;99.90;;;;;;5034166;28;20021;-73
2022/08/31 03:40:41;;;;;;;0.20;0.20;;;18.60;99.90;;;;;;5051736;28;20511;-73
2022/08/31 03:43:09;;;;;;;0.10;0.10;;;18.40;99.90;;;;;;5051738;28;20018;-73
2022/08/31 03:45:38;;;;;;;4.55;4.07;;;18.20;99.90;;;;;;5051740;28;20391;-73
2022/08/31 03:48:06;;;;;;;0.10;0.10;;;18.10;99.90;;;;;;5051761;28;20040;-73
2022/08/31 03:50:33;;;;;;;0.10;0.10;;;18.30;99.90;;;;;;5052023;28;20028;-73
2022/08/31 03:53:03;;;;;;;0.10;0.10;;;18.40;99.90;;;;;;5033919;28;20104;-73
2022/08/31 03:55:30;;;;;;;3.10;2.90;;;18.30;99.90;;;;;;5051631;28;20021;-73
2022/08/31 03:57:56;;;;;;;0.10;0.10;;;18.20;99.90;;;;;;5051647;28;20021;-73
2022/08/31 04:00:23;;;;;;;0.82;0.82;;;18.40;99.90;;;;;;5052107;28;20075;-73
2022/08/31 04:02:49;;;;;;;0.52;0.52;;;18.40;99.90;;;;;;5033689;28;20021;-73
2022/08/31 04:05:16;;;;;;;0.40;0.40;;;18.40;99.90;;;;;;5033831;28;20203;-73
2022/08/31 04:07:43;;;;;;;0.15;0.15;;;18.20;99.90;;;;;;5033855;28;20047;-73
2022/08/31 04:10:11;;;;;;;0.10;0.10;;;18.20;99.90;;;;;;5051666;28;20023;-73
2022/08/31 04:12:37;;;;;;;0.10;0.10;;;18.10;99.90;;;;;;5051575;28;20500;-73
2022/08/31 04:15:04;;;;;;;0.10;0.10;;;18.20;99.90;;;;;;5051411;28;20036;-73
2022/08/31 04:17:30;;;;;;;0.10;0.10;;;18.40;99.90;;;;;;5033697;28;20112;-73
2022/08/31 04:19:56;;;;;;;0.10;0.10;;;18.50;99.90;;;;;;5051514;28;20036;-73
2022/08/31 04:22:22;;;;;;;0.20;0.20;;;18.60;99.90;;;;;;5067357;22;20024;-73
2022/08/31 04:24:48;;;;;;;0.10;0.10;;;18.60;99.90;;;;;;5068696;28;20387;-72
2022/08/31 04:27:14;;;;;;;0.15;0.15;;;18.40;99.90;;;;;;5027804;28;20055;-73
2022/08/31 04:29:40;;;;;;;0.43;0.43;;;18.50;99.90;;;;;;5060020;28;20041;-73
2022/08/31 04:32:05;;;;;;;0.00;0.00;;;18.50;99.90;;;;;;5051172;28;20067;-72
2022/08/31 04:34:31;;;;;;;0.20;0.20;;;18.40;99.90;;;;;;5066045;28;20074;-72
2022/08/31 04:36:57;;;;;;;0.57;0.57;;;18.30;99.90;;;;;;5071120;28;20027;-73
2022/08/31 04:39:23;;;;;;;0.10;0.10;;;18.30;99.90;;;;;;5072047;28;20035;-72
2022/08/31 04:41:49;;;;;;;0.10;0.10;;;18.20;99.90;;;;;;5050388;28;20096;-72
2022/08/31 04:44:15;;;;;;;0.20;0.17;;;18.30;99.90;;;;;;5056749;28;20099;-73
2022/08/31 04:46:41;;;;;;;0.10;0.10;;;18.30;99.90;;;;;;5063281;28;20021;-73
2022/08/31 04:49:09;;;;;;;0.50;0.50;;;18.30;99.90;;;;;;5063502;28;20024;-73
2022/08/31 04:51:37;;;;;;;0.10;0.10;;;18.50;99.90;;;;;;5056504;28;20020;-73
2022/08/31 04:54:05;;;;;;;1.40;0.57;;;18.60;99.90;;;;;;5025764;28;20031;-73
2022/08/31 04:56:33;;;;;;;0.30;0.30;;;18.50;99.90;;;;;;5036599;28;20082;-73
2022/08/31 04:59:01;;;;;;;0.20;0.20;;;18.30;99.90;;;;;;5036888;28;20025;-73
2022/08/31 05:01:31;;;;;;;0.30;0.30;;;18.30;99.90;;;;;;5059559;28;20063;-73
2022/08/31 05:03:57;;;;;;;0.00;0.00;;;18.30;99.90;;;;;;5042593;28;20049;-73
2022/08/31 05:06:29;;;;;;;0.00;0.00;;;18.30;99.90;;;;;;5036636;28;20074;-72
2022/08/31 05:09:03;;;;;;;0.10;0.10;;;18.40;99.90;;;;;;5054278;28;20109;-73
2022/08/31 05:11:29;;;;;;;0.13;0.13;;;18.50;99.90;;;;;;5019970;28;20476;-72
2022/08/31 05:14:00;;;;;;;0.90;0.90;;;18.50;99.90;;;;;;5054251;28;20395;-73
2022/08/31 05:16:29;;;;;;;0.20;0.20;;;18.40;99.90;;;;;;5025872;28;20029;-73
2022/08/31 05:18:56;;;;;;;0.10;0.10;;;18.40;99.90;;;;;;5056325;28;20033;-73
2022/08/31 05:21:28;;;;;;;0.93;0.93;;;18.40;99.90;;;;;;5064315;28;20028;-73
2022/08/31 05:23:56;;;;;;;;;;;18.50;99.90;;;;;;5069103;28;20028;-73
2022/08/31 05:26:27;;;;;;;0.10;0.10;;;18.50;99.90;;;;;;5053985;28;20383;-73
2022/08/31 05:28:53;;;;;;;1.20;0.75;;;18.60;99.90;;;;;;5052811;28;20021;-73
2022/08/31 05:31:20;;;;;;;0.10;0.10;;;18.60;99.90;;;;;;5055376;28;20029;-73
2022/08/31 05:33:46;;;;;;;1.13;1.13;;;18.60;99.90;;;;;;5057862;28;20539;-73
2022/08/31 05:36:12;;;;;;;0.10;0.10;;;18.50;99.90;;;;;;5065875;28;20032;-73
2022/08/31 05:38:39;;;;;;;0.20;0.20;;;18.50;99.90;;;;;;5073905;28;20075;-72
2022/08/31 05:41:06;;;;;;;0.47;0.47;;;18.60;99.90;;;;;;5038885;28;20036;-73
2022/08/31 05:43:32;;;;;;;0.10;0.10;;;18.70;99.90;;;;;;5055303;28;20020;-73
2022/08/31 05:45:59;;;;;;;0.45;0.45;;;18.80;99.90;;;;;;5055347;28;20438;-73
2022/08/31 05:48:26;;;;;;;0.10;0.10;;;18.70;99.90;;;;;;5073667;28;20024;-73
2022/08/31 05:50:53;;;;;;;0.10;0.10;;;18.80;99.90;;;;;;5071460;28;20086;-73
2022/08/31 05:53:19;;;;;;;0.20;0.20;;;18.80;99.90;;;;;;5054716;28;20021;-73
2022/08/31 05:55:45;;;;;;;2.88;2.65;;;18.70;99.90;;;;;;5053923;28;20384;-73
2022/08/31 05:58:11;;;;;;;0.10;0.10;;;18.70;99.90;;;;;;5055116;28;20025;-73
2022/08/31 06:00:38;;;;;;;0.10;0.10;;;18.70;99.90;;;;;;5054994;28;20031;-72
2022/08/31 06:03:04;;;;;;;0.10;0.10;;;18.60;99.90;;;;;;5040986;28;20035;-76
2022/08/31 06:05:30;;;;;;;0.43;0.43;;;18.70;99.90;;;;;;5079842;23;20102;-77
2022/08/31 06:07:56;;;;;;;0.10;0.10;;;18.60;99.90;;;;;;5055226;28;20020;-76
2022/08/31 06:10:24;;;;;;;3.00;0.75;;;18.60;99.90;;;;;;5073106;28;20108;-76
2022/08/31 06:12:49;;;;;;;0.10;0.10;;;18.70;99.90;;;;;;5072937;28;20032;-76
2022/08/31 06:15:16;;;;;;;0.00;0.00;;;18.60;99.90;;;;;;5055025;28;20403;-75
2022/08/31 06:17:43;;;;;;;0.00;0.00;;;18.40;99.90;;;;;;5072974;28;20024;-74
2022/08/31 06:20:09;;;;;;;0.10;0.10;;;18.50;99.90;;;;;;5072462;28;20016;-75
2022/08/31 06:22:35;;;;;;;0.03;0.03;;;18.50;99.90;;;;;;5054887;28;20068;-75
2022/08/31 06:25:04;;;;;;;0.20;0.20;;;18.60;99.90;;;;;;5072563;28;20094;-76
2022/08/31 06:27:31;;;;;;;0.10;0.10;;;18.40;99.90;;;;;;5072742;28;20023;-77
2022/08/31 06:29:57;;;;;;;0.10;0.10;;;18.40;99.90;;;;;;5072769;28;20178;-76
2022/08/31 06:32:25;;;;;;;0.30;0.30;;;18.20;99.90;;;;;;5072504;28;20035;-76
2022/08/31 06:34:50;;;;;;;0.43;0.43;;;18.30;99.90;;;;;;5072865;28;20020;-77
2022/08/31 06:37:16;;;;;;;0.10;0.10;;;18.40;99.90;;;;;;5054509;28;20454;-77
2022/08/31 06:39:42;;;;;;;0.10;0.10;;;18.50;99.90;;;;;;5054513;28;20388;-76
2022/08/31 06:42:08;;;;;;;0.10;0.10;;;18.60;99.90;;;;;;5072230;28;20028;-76
2022/08/31 06:44:33;;;;;;;0.10;0.10;;;18.70;99.90;;;;;;5072311;28;20028;-76
2022/08/31 06:46:59;;;;;;;0.10;0.10;;;19.00;99.90;;;;;;5052984;28;20025;-76
2022/08/31 06:49:25;;;;;;;0.10;0.10;;;18.90;99.90;;;;;;5053432;28;20502;-75
2022/08/31 06:51:51;;;;;;;2.03;1.27;;;18.80;99.90;;;;;;5072026;28;20103;-77
2022/08/31 06:54:18;;;;;;;0.10;0.10;;;18.80;99.90;;;;;;5072198;28;20408;-76
2022/08/31 06:56:44;;;;;;;0.10;0.10;;;18.80;99.90;;;;;;5054217;28;20404;-77
2022/08/31 06:59:10;;;;;;;0.32;0.32;;;18.90;99.90;;;;;;5065324;28;20024;-77
2022/08/31 07:01:38;;;;;;;0.00;0.00;;;19.10;99.90;;;;;;5067188;28;20501;-76
2022/08/31 07:04:09;;;;;;;0.00;0.00;;;19.10;99.90;;;;;;5034159;28;20396;-76
2022/08/31 07:06:44;;;;;;;0.00;0.00;;;19.10;99.90;;;;;;5017518;28;20053;-76
2022/08/31 07:09:16;;;;;;;0.10;0.10;;;19.00;99.90;;;;;;5034137;28;20370;-77
2022/08/31 07:11:45;;;;;;;0.10;0.10;;;19.00;99.90;;;;;;5017532;28;20052;-76
2022/08/31 07:14:14;;;;;;;0.10;0.10;;;19.10;99.90;;;;;;5051950;28;20036;-77
2022/08/31 07:16:40;;;;;;;0.47;0.47;;;19.20;99.90;;;;;;5034011;28;20021;-76
2022/08/31 07:19:07;;;;;;;0.10;0.10;;;19.10;99.90;;;;;;5033906;28;20025;-77
2022/08/31 07:21:37;;;;;;;0.57;0.57;;;19.00;99.90;;;;;;5034269;28;20035;-76
2022/08/31 07:24:07;;;;;;;0.63;0.63;;;19.00;99.90;;;;;;5033736;28;20389;-76
2022/08/31 07:26:36;;;;;;;0.35;0.35;;;18.90;99.90;;;;;;5033514;28;20047;-76
2022/08/31 07:29:05;;;;;;;0.10;0.10;;;19.00;99.90;;;;;;5051517;28;20021;-76
2022/08/31 07:31:49;;;;;;;0.35;0.35;;;19.00;99.90;;;;;;5034269;28;20021;-76
2022/08/31 07:34:24;;;;;;;0.32;0.32;;;18.90;99.90;;;;;;5033861;28;20028;-75
2022/08/31 07:42:26;;;;;;;0.00;0.00;;;18.60;99.90;;;;;;5051670;28;20032;-75
2022/08/31 07:44:53;;;;;;;0.10;0.10;;;18.60;99.90;;;;;;5051528;28;20049;-75
2022/08/31 07:47:20;;;;;;;0.00;0.00;;;18.70;99.90;;;;;;5051482;28;20060;-76
2022/08/31 07:49:50;;;;;;;0.40;0.40;;;18.70;99.90;;;;;;5033718;28;20035;-75
2022/08/31 07:52:24;;;;;;;0.00;0.00;;;18.80;99.90;;;;;;5051508;28;20071;-76
2022/08/31 07:54:52;;;;;;;0.63;0.22;;;18.50;99.90;;;;;;5051337;28;20481;-75
2022/08/31 07:57:20;;;;;;;0.00;0.00;;;18.60;99.90;;;;;;5051338;28;20032;-76
2022/08/31 07:59:53;;;;;;;1.00;1.00;;;18.80;99.90;;;;;;5051435;28;20104;-75
2022/08/31 08:02:20;;;;;;;0.00;0.00;;;18.80;99.90;;;;;;5051159;28;20087;-76
2022/08/31 08:04:49;;;;;;;0.20;0.20;;;18.80;99.90;;;;;;5017686;28;20036;-77
2022/08/31 08:07:17;;;;;;;0.30;0.30;;;18.90;99.90;;;;;;5019493;28;20033;-77
2022/08/31 08:09:43;;;;;;;0.10;0.10;;;18.90;99.90;;;;;;5035570;28;20476;-76
2022/08/31 08:12:08;;;;;;;0.00;0.00;;;18.70;99.90;;;;;;5053348;28;20029;-77
2022/08/31 08:14:37;;;;;;;0.57;0.57;;;18.70;99.90;;;;;;5019637;28;20021;-77
2022/08/31 08:17:05;;;;;;;0.03;0.03;;;18.70;99.90;;;;;;5039476;28;20021;-77
2022/08/31 08:19:32;;;;;;;1.27;0.98;;;18.60;99.90;;;;;;5039312;28;20049;-77
2022/08/31 08:22:01;;;;;;;0.05;0.05;;;18.70;99.90;;;;;;5039193;28;20025;-77
2022/08/31 08:24:28;;;;;;;0.98;0.98;;;18.80;99.90;;;;;;5022552;28;20075;-76
2022/08/31 08:26:54;;;;;;;0.30;0.30;;;18.40;99.90;;;;;;5022037;28;20027;-76
2022/08/31 08:29:22;;;;;;;1.00;0.90;;;18.30;99.90;;;;;;5055712;28;20481;-76
2022/08/31 08:31:53;;;;;;;0.10;0.10;;;18.50;99.90;;;;;;5037467;28;20025;-76
2022/08/31 08:34:21;;;;;;;0.00;0.00;;;18.60;99.90;;;;;;5055328;28;20021;-76
2022/08/31 08:36:47;;;;;;;3.35;0.57;;;18.70;99.90;;;;;;5037585;28;20025;-76
2022/08/31 08:39:18;;;;;;;0.00;0.00;;;18.70;99.90;;;;;;5060160;28;20021;-76
2022/08/31 08:41:46;;;;;;;0.00;0.00;;;18.80;99.90;;;;;;5021641;28;20078;-77
2022/08/31 08:44:14;;;;;;;0.10;0.10;;;18.90;99.90;;;;;;5055135;28;20267;-76
2022/08/31 08:46:56;;;;;;;0.10;0.10;;;19.00;99.90;;;;;;5054509;28;20025;-74
2022/08/31 08:49:27;;;;;;;0.10;0.10;;;19.10;99.90;;;;;;5081738;28;20472;-74
2022/08/31 08:51:58;;;;;;;;;;;19.10;99.90;;;;;;5081766;28;20024;-75
2022/08/31 08:54:29;;;;;;;0.20;0.20;;;19.10;99.90;;;;;;5041370;28;19930;-73
2022/08/31 08:56:58;;;;;;;0.47;0.47;;;19.20;99.90;;;;;;5078672;28;20052;-77
2022/08/31 08:59:25;;;;;;;0.10;0.10;;;19.30;99.90;;;;;;5045633;28;20040;-77
2022/08/31 09:02:00;;;;;;;0.00;0.00;;;19.30;99.90;;;;;;5054545;28;20025;-77
2022/08/31 09:04:42;;;;;;;0.10;0.10;;;19.50;99.90;;;;;;5054538;28;20021;-77
2022/08/31 09:07:21;;;;;;;0.00;0.00;;;19.30;99.90;;;;;;5036825;28;20028;-77
2022/08/31 09:10:08;;;;;;;0.00;0.00;;;19.10;99.90;;;;;;5036608;28;20439;-77
2022/08/31 09:12:56;;;;;;;2.35;1.70;;;19.10;99.90;;;;;;5041906;28;20040;-77
2022/08/31 09:15:51;;;;;;;0.00;0.00;;;19.00;99.90;;;;;;5043836;28;20387;-78
2022/08/31 09:18:47;;;;;;;0.03;0.03;;;19.00;99.90;;;;;;5056013;28;20033;-77
2022/08/31 09:21:21;;;;;;;0.00;0.00;;;18.80;99.90;;;;;;5065213;28;20025;-78
2022/08/31 09:24:07;;;;;;;0.00;0.00;;;18.80;99.90;;;;;;5062929;28;20028;-77
2022/08/31 09:27:19;;;;;;;0.00;0.00;;;18.90;99.90;;;;;;5060645;28;20043;-77
2022/08/31 09:29:51;;;;;;;1.17;1.08;;;18.90;99.90;;;;;;5044342;28;20396;-78
2022/08/31 09:32:22;;;;;;;0.08;0.08;;;18.70;99.90;;;;;;5043635;28;20025;-78
2022/08/31 09:35:00;;;;;;;0.10;0.10;;;18.70;99.90;;;;;;5043632;28;20484;-78
2022/08/31 09:37:40;;;;;;;0.08;0.05;;;18.70;99.90;;;;;;5060989;28;20092;-78
2022/08/31 09:40:18;;;;;;;0.10;0.10;;;18.80;99.90;;;;;;5042563;28;20029;-78
2022/08/31 09:42:47;;;;;;;0.30;0.30;;;18.70;99.90;;;;;;5041929;28;20044;-77
2022/08/31 09:45:28;;;;;;;0.75;0.75;;;18.70;99.90;;;;;;5059903;28;20021;-78
2022/08/31 09:48:00;;;;;;;0.57;0.28;;;18.70;99.90;;;;;;5042646;28;20025;-78
2022/08/31 09:50:46;;;;;;;0.10;0.10;;;18.80;99.90;;;;;;5041824;28;20049;-77
2022/08/31 09:56:12;;;;;;;0.25;0.25;;;18.80;99.90;;;;;;5076705;28;20111;-76
2022/08/31 09:58:49;;;;;;;;;;;18.80;99.90;;;;;;5043217;28;20083;-77
2022/08/31 10:01:45;;;;;;;0.10;0.10;;;18.80;99.90;;;;;;5042859;28;19933;-77
2022/08/31 10:04:15;;;;;;;0.70;0.47;;;18.80;99.90;;;;;;5056065;28;20032;-77
2022/08/31 10:06:54;;;;;;;0.00;0.00;;;18.70;99.90;;;;;;5028382;28;20013;-77
2022/08/31 10:09:43;;;;;;;0.00;0.00;;;18.70;99.90;;;;;;5050480;28;20032;-77
2022/08/31 10:12:16;;;;;;;0.00;0.00;;;18.70;99.90;;;;;;5057417;28;20025;-77
2022/08/31 10:14:55;;;;;;;0.30;0.30;;;18.80;99.90;;;;;;5070852;28;20045;-77
2022/08/31 10:18:02;;;;;;;0.00;0.00;;;18.70;99.90;;;;;;5046775;28;20029;-79
2022/08/31 10:20:38;;;;;;;0.50;0.50;;;18.60;99.90;;;;;;5025694;28;20044;-77
2022/08/31 10:23:19;;;;;;;0.00;0.00;;;18.70;99.90;;;;;;5073608;22;20099;-75
2022/08/31 10:25:54;;;;;;;0.00;0.00;;;18.60;99.90;;;;;;5051547;28;20017;-75
2022/08/31 10:28:50;;;;;;;0.00;0.00;;;18.60;99.90;;;;;;5031581;28;20021;-75
2022/08/31 10:31:35;;;;;;;0.00;0.00;;;18.60;99.90;;;;;;5032561;28;20116;-75
2022/08/31 10:37:14;;;;;;;0.00;0.00;;;18.70;99.90;;;;;;5047654;28;20057;-75
2022/08/31 10:39:52;;;;;;;2.67;1.48;;;18.60;99.90;;;;;;5031477;28;20036;-75
2022/08/31 10:42:28;;;;;;;1.85;0.90;;;18.70;99.90;;;;;;5032726;28;20098;-75
2022/08/31 10:45:10;;;;;;;5.35;1.90;;;18.70;99.90;;;;;;5032605;28;20029;-75
2022/08/31 10:47:40;;;;;;;;;;;18.40;99.90;;;;;;5031584;28;20030;-75
2022/08/31 10:50:09;;;;;;;0.00;0.00;;;18.60;99.90;;;;;;5014786;28;19914;-75
2022/08/31 10:53:12;;;;;;;0.30;0.30;;;18.60;99.90;;;;;;5032230;28;20025;-75
2022/08/31 10:56:13;;;;;;;0.17;0.17;;;18.70;99.90;;;;;;5037938;28;20542;-75
2022/08/31 10:59:01;;;;;;;0.10;0.10;;;18.60;99.90;;;;;;5031202;28;20033;-75
2022/08/31 11:01:43;;;;;;;0.30;0.30;;;18.50;99.90;;;;;;5030963;28;20477;-74
2022/08/31 11:04:25;;;;;;;0.00;0.00;;;18.60;99.90;;;;;;5031092;28;20104;-75
2022/08/31 11:07:07;;;;;;;0.00;0.00;;;18.70;99.90;;;;;;5032332;28;20017;-74
2022/08/31 11:09:47;;;;;;;0.10;0.10;;;18.80;99.90;;;;;;5031454;28;20018;-74
2022/08/31 11:12:20;;;;;;;2.38;1.98;;;18.90;99.90;;;;;;5032672;28;20022;-74
2022/08/31 11:14:57;;;;;;;0.52;0.52;;;18.70;99.90;;;;;;5032692;28;20084;-75
2022/08/31 11:17:37;;;;;;;0.10;0.10;;;18.70;99.90;;;;;;5032410;28;20056;-75
2022/08/31 11:20:18;;;;;;;0.00;0.00;;;18.70;99.90;;;;;;5031055;28;20021;-74
2022/08/31 11:22:51;;;;;;;0.00;0.00;;;18.80;99.90;;;;;;5030701;28;20017;-74
2022/08/31 11:26:07;;;;;;;0.10;0.10;;;18.70;99.90;;;;;;5030746;28;20111;-75
2022/08/31 11:28:40;;;;;;;0.05;0.05;;;18.80;99.90;;;;;;5006377;28;20397;-75
2022/08/31 11:31:13;;;;;;;1.00;1.00;;;18.60;99.90;;;;;;5038840;28;20440;-75
2022/08/31 11:33:49;;;;;;;0.10;0.10;;;18.50;99.90;;;;;;5050257;28;20432;-75
2022/08/31 11:36:48;;;;;;;0.00;0.00;;;18.40;99.90;;;;;;5051378;28;20032;-75
2022/08/31 11:39:14;;;;;;;0.00;0.00;;;18.40;99.90;;;;;;5051701;28;20492;-76
2022/08/31 11:41:45;;;;;;;0.70;0.38;;;18.40;99.90;;;;;;5051614;28;20026;-75
2022/08/31 11:44:30;;;;;;;2.17;0.70;;;18.30;99.90;;;;;;5050384;28;20116;-75
2022/08/31 11:47:05;;;;;;;5.78;1.85;;;18.40;99.90;;;;;;5033686;28;20492;-74
2022/08/31 11:49:45;;;;;;;0.00;0.00;;;18.40;99.90;;;;;;5052332;28;20020;-75
2022/08/31 11:52:24;;;;;;;1.65;1.48;;;18.30;99.90;;;;;;5055558;28;20492;-74
2022/08/31 11:54:51;;;;;;;0.63;0.63;;;18.40;99.90;;;;;;5055532;28;20037;-75
2022/08/31 11:57:22;;;;;;;0.43;0.40;;;18.40;99.90;;;;;;5054682;28;20025;-75
2022/08/31 11:59:50;;;;;;;0.00;0.00;;;18.40;99.90;;;;;;5055811;28;20057;-75
2022/08/31 12:02:18;;;;;;;0.10;0.10;;;18.50;99.90;;;;;;5055298;28;20032;-75
2022/08/31 12:04:50;;;;;;;2.35;0.45;;;18.60;99.90;;;;;;5055152;28;20025;-75
2022/08/31 12:07:28;;;;;;;0.10;0.10;;;18.60;99.90;;;;;;5054007;28;20524;-75
2022/08/31 12:09:54;;;;;;;0.10;0.10;;;18.30;99.90;;;;;;5054169;28;20033;-75
2022/08/31 12:12:31;;;;;;;4.63;2.22;;;18.30;99.90;;;;;;5037085;28;20074;-75
2022/08/31 12:15:06;;;;;;;0.00;0.00;;;18.20;99.90;;;;;;5053753;28;20498;-75
2022/08/31 12:17:35;;;;;;;0.03;0.03;;;18.20;99.90;;;;;;5054922;28;20079;-75
2022/08/31 12:20:30;;;;;;;0.00;0.00;;;18.30;99.90;;;;;;5054561;28;20079;-75
2022/08/31 12:23:36;;;;;;;0.55;0.22;;;18.40;99.90;;;;;;5054666;28;20037;-75
2022/08/31 12:26:21;;;;;;;0.00;0.00;;;18.50;99.90;;;;;;5053422;28;20025;-74
2022/08/31 12:29:14;;;;;;;0.00;0.00;;;18.70;99.90;;;;;;5054990;28;20028;-74
2022/08/31 12:31:42;;;;;;;0.20;0.20;;;18.80;99.90;;;;;;5052847;28;20510;-74
2022/08/31 12:34:17;;;;;;;0.13;0.13;;;18.80;99.90;;;;;;5054413;28;20791;-75
2022/08/31 12:36:42;;;;;;;0.03;0.03;;;18.80;99.90;;;;;;5054214;28;20380;-75
2022/08/31 12:39:18;;;;;;;0.65;0.65;;;18.70;99.90;;;;;;5054658;28;20029;-75
2022/08/31 12:42:04;;;;;;;1.65;1.55;;;18.80;99.90;;;;;;5053054;28;20025;-75
2022/08/31 12:44:35;;;;;;;0.00;0.00;;;18.90;99.90;;;;;;5069681;28;20082;-74
2022/08/31 12:47:22;;;;;;;0.20;0.20;;;19.00;99.90;;;;;;5048061;28;20022;-74
2022/08/31 12:49:53;;;;;;;0.63;0.63;;;18.90;99.90;;;;;;5033498;28;20532;-74
2022/08/31 12:52:53;;;;;;;0.00;0.00;;;18.90;99.90;;;;;;5034691;28;20029;-74
2022/08/31 12:55:36;;;;;;;0.00;0.00;;;18.90;99.90;;;;;;5032526;28;20438;-75
2022/08/31 12:58:20;;;;;;;0.03;0.03;;;18.90;99.90;;;;;;5033100;28;20056;-75
2022/08/31 13:00:47;;;;;;;0.00;0.00;;;19.00;99.90;;;;;;5034291;28;20405;-75
2022/08/31 13:03:25;;;;;;;0.10;0.10;;;19.10;99.90;;;;;;5032686;28;20485;-75
2022/08/31 13:06:06;;;;;;;0.17;0.17;;;19.00;99.90;;;;;;5032793;28;20057;-74
2022/08/31 13:08:45;;;;;;;1.35;1.27;;;18.80;99.90;;;;;;5033061;28;20690;-74
2022/08/31 13:11:25;;;;;;;0.00;0.00;;;18.50;99.90;;;;;;5033023;28;20493;-74
2022/08/31 13:14:10;;;;;;;0.00;0.00;;;18.50;99.90;;;;;;5034351;28;20026;-74
2022/08/31 13:16:45;;;;;;;0.00;0.00;;;18.50;99.90;;;;;;5034068;28;20043;-76
2022/08/31 13:19:28;;;;;;;0.10;0.10;;;18.50;99.90;;;;;;5032975;28;20030;-75
2022/08/31 13:21:57;;;;;;;0.05;0.05;;;18.50;99.90;;;;;;5032601;28;20408;-75
2022/08/31 13:24:30;;;;;;;0.00;0.00;;;18.40;99.90;;;;;;5033845;28;20397;-75